Lake Arthur, Louisiana
Current Conditions -  °F | °C
As of 11:35 AM on Friday 19 Dec 2014 (Local Time) from K3R7 Reporting Station
Drizzle Drizzle  
Wind Chill: 55°   Ceiling: 300
Heat Index: 55°   Visibility: 5mi
Dew Point: 55°   Wind: 9mph
Humidity: 99%   Direction: 30°NNE
Pressure: 30.07"   Gusts: NA
Location:  30.08°N, 92.67°W
Report Text: K3R7 191735Z AUTO 03008KT 5SM -DZ OVC003 13/13 A3007 RMK AO2 P0001 T01270125
Loading
Personal Weather Stations






























Interactive Weather Map New forecast layout! Learn more

10-Day Weather Forecast

Advertisements
Track Severe Weather on mobile